DTKA/TBJ METAR and TAF weather

Enter ICAO airport designator
Station Type Date Time Source
DTKA METAR 2019/02/20 08:00 UTC NOAA

DTKA 200800Z 08004KT 9999 FEW020 09/07 Q1022 NOSIG


Station Type Date Time Source
DTKA Decoded METAR 2019/02/20 08:00 UTC NOAA

Tabarka, Tunisia (DTKA) 36-57N 008-45E 21M
Feb 20, 2019 - 03:00 AM EST / 2019.02.20 0800 UTC
Wind: from the E (080 degrees) at 5 MPH (4 KT):0
Visibility: greater than 7 mile(s):0
Sky conditions: mostly clear
Temperature: 48 F (9 C)
Dew Point: 44 F (7 C)
Relative Humidity: 87%
Pressure (altimeter): 30.18 in. Hg (1022 hPa)
ob: DTKA 200800Z 08004KT 9999 FEW020 09/07 Q1022 NOSIG
cycle: 8

Station Type Date Time Source
DTKA TAF 2018/07/22 13:33 UTC NOAA

TAF TAF DTKA 221200Z 2213/2322 23005KT 9999 FEW020 PROB30
TEMPO 2217/2222 4000 -TSRA FEW026CB


Example: see airport list